»·PEaware :: N7CM KSNA-KLGB

N7CM :: KSNA-KLGB

FLIGHT INFORMATION

Flight Status: Arrived
Operator: Privately registered:
United States
More flights under this callsign
Pilot: Carlos D. (29349)
Aircraft: CIRRUS VISIONJET
(SF50)
More flights by this aircraft type
Origin: KSNA John Wayne-Orange Co
United States
Destination: KLGB Long Beach
United States
More flights between these airports :: More routes between these airports
Route: +SLI
File this flight plan on PilotEdge
Remarks:
Altitude:
(Current/Filed)
0ft
Speed:
(Current/Filed)
0kts
Departed: 05-Oct-20 04:12 PM
Arrived: 05-Oct-20 04:57 PM
Distance/Time
Traveled:
17nm/0:44
Distance/Time
To Go:
Arrived

Flight Plot

Page will automatically refresh every two minutes.


Map Options




Map Legend


Flown Route
Filed Route
Departure Airport
Arrival Airport
Navaid (VOR, NDB)
Fix

Horizontal Profiles

Position Reports

Time Latitude Longitude Heading Altitude Ground
Speed
05-Oct-20 15:51 33.671531 -117.867536 207 60ft 0kts
05-Oct-20 15:52 33.671531 -117.867536 207 60ft 0kts
05-Oct-20 15:53 33.671531 -117.867536 207 60ft 0kts
05-Oct-20 15:54 33.671531 -117.867536 207 60ft 0kts
05-Oct-20 15:55 33.671531 -117.867536 207 60ft 0kts
05-Oct-20 15:56 33.671531 -117.867536 207 60ft 0kts
05-Oct-20 15:57 33.671531 -117.867536 207 60ft 0kts
05-Oct-20 15:58 33.671531 -117.867536 207 60ft 0kts
05-Oct-20 15:59 33.671531 -117.867536 207 60ft 0kts
05-Oct-20 16:00 33.671804 -117.868176 322 60ft 7kts
05-Oct-20 16:01 33.673831 -117.866644 29 60ft 11kts
05-Oct-20 16:02 33.675487 -117.865591 27 60ft 2kts
05-Oct-20 16:03 33.677783 -117.864086 24 60ft 15kts
05-Oct-20 16:04 33.680136 -117.862662 8 60ft 5kts
05-Oct-20 16:05 33.680607 -117.862949 297 60ft 0kts
05-Oct-20 16:06 33.680656 -117.863063 297 60ft 0kts
05-Oct-20 16:07 33.680656 -117.863063 297 60ft 0kts
05-Oct-20 16:08 33.681057 -117.863953 296 60ft 3kts
05-Oct-20 16:09 33.681108 -117.864079 296 60ft 0kts
05-Oct-20 16:10 33.681472 -117.865142 230 60ft 3kts
05-Oct-20 16:11 33.662516 -117.875581 188 1201ft 100kts
05-Oct-20 16:12 33.632639 -117.879076 186 2390ft 109kts
05-Oct-20 16:13 33.597587 -117.883571 186 3018ft 159kts
05-Oct-20 16:14 33.554387 -117.889313 186 3008ft 153kts
05-Oct-20 16:15 33.538758 -117.932113 261 3009ft 155kts
05-Oct-20 16:16 33.534525 -117.983621 261 3009ft 155kts
05-Oct-20 16:17 33.530298 -118.034988 261 3009ft 154kts
05-Oct-20 16:18 33.554295 -118.068973 348 3009ft 164kts
05-Oct-20 16:19 33.599250 -118.074561 16 3010ft 164kts
05-Oct-20 16:20 33.639422 -118.048243 32 3009ft 165kts
05-Oct-20 16:21 33.678516 -118.019183 32 3009ft 165kts
05-Oct-20 16:22 33.716235 -118.029730 314 2801ft 125kts
05-Oct-20 16:23 33.738449 -118.055493 312 2647ft 109kts
05-Oct-20 16:25 33.767055 -118.066263 7 2321ft 114kts
05-Oct-20 16:26 33.800925 -118.064982 333 1150ft 130kts
05-Oct-20 16:27 33.821007 -118.092888 285 621ft 102kts
05-Oct-20 16:28 33.822931 -118.123765 268 423ft 75kts
05-Oct-20 16:29 33.822850 -118.148357 274 238ft 81kts
05-Oct-20 16:30 33.821109 -118.178450 255 2267ft 91kts
05-Oct-20 16:31 33.807584 -118.209664 200 3025ft 108kts
05-Oct-20 16:32 33.775881 -118.206170 174 3006ft 118kts
05-Oct-20 16:33 33.743054 -118.204262 174 3005ft 120kts
05-Oct-20 16:34 33.707630 -118.198603 174 3004ft 144kts
05-Oct-20 16:35 33.666659 -118.192375 174 3004ft 146kts
05-Oct-20 16:36 33.621429 -118.185776 174 3006ft 178kts
05-Oct-20 16:37 33.571931 -118.178783 174 3007ft 179kts
05-Oct-20 16:38 33.547157 -118.128609 111 3008ft 185kts
05-Oct-20 16:39 33.529900 -118.070577 111 3000ft 184kts
05-Oct-20 16:40 33.512696 -118.012802 111 3000ft 183kts
05-Oct-20 16:41 33.495654 -117.955190 111 2999ft 184kts
05-Oct-20 16:42 33.481348 -117.896646 79 2979ft 189kts
05-Oct-20 16:42 33.515265 -117.893150 293 2979ft 188kts
05-Oct-20 16:44 33.526766 -117.964550 287 2994ft 189kts
05-Oct-20 16:45 33.557515 -118.016125 307 3000ft 191kts
05-Oct-20 16:45 33.585514 -118.057169 307 3000ft 191kts
05-Oct-20 16:46 33.622546 -118.059254 28 2993ft 114kts
05-Oct-20 16:48 33.656156 -118.035770 33 3000ft 121kts
05-Oct-20 16:48 33.680764 -118.017501 33 2996ft 123kts
05-Oct-20 16:49 33.710755 -118.023783 317 2999ft 116kts
05-Oct-20 16:50 33.734520 -118.050826 312 2744ft 115kts
05-Oct-20 16:51 33.762418 -118.066779 1 2379ft 114kts
05-Oct-20 16:52 33.797329 -118.063241 341 1346ft 145kts
05-Oct-20 16:53 33.821257 -118.093449 280 593ft 91kts
05-Oct-20 16:54 33.822624 -118.121091 266 320ft 87kts
05-Oct-20 16:55 33.822742 -118.149557 266 43ft 62kts
05-Oct-20 16:56 33.821987 -118.153857 174 48ft 0kts
05-Oct-20 16:57 33.821987 -118.153857 174 48ft 0kts

Navigation Log

Ident Type
Flight plan parsing failed, navigation log unavailable